Terminal Aerodrome Forecast
Issued by NWS Sterling, VA

Home | Current Version | Previous Version | Text Only | Print | Product List | Glossary On
Versions: 1 2 3 4 5 6 7 8 9 10 11 12 13 14 15 16
000
FTUS41 KLWX 202329
TAFMRB
TAF
KMRB 202329Z 2100/2124 32012KT P6SM SKC
     FM210300 33005KT P6SM SKC
     FM212300 03004KT P6SM SCT130=

USA.gov is the U.S. government's official web portal to all federal, state and local government web resources and services.